Time;durP1;ratioP1;P1;durP2;ratioP2;P2;SDS_P1;SDS_P2;PMS_P1;PMS_P2;Temp;Humidity;BMP_temperature;BMP_pressure;BME280_temperature;BME280_humidity;BME280_pressure;Samples;Min_cycle;Max_cycle;Signal;HPM_P1;HPM_P2
2021/06/07 00:01:33;;;;;;;5.62;4.92;;;;;;;10.13;80.69;94711.91;1703097;83;21581;-52
2021/06/07 00:03:59;;;;;;;14.60;5.87;;;;;;;10.12;80.66;94708.38;1699129;83;21083;-52
2021/06/07 00:06:26;;;;;;;9.13;5.53;;;;;;;10.15;80.88;94714.98;1695141;83;21080;-52
2021/06/07 00:08:54;;;;;;;6.83;5.30;;;;;;;10.15;81.10;94716.36;1698013;83;21042;-52
2021/06/07 00:11:23;;;;;;;10.10;5.60;;;;;;;10.14;81.16;94720.32;1712908;83;20970;-52
2021/06/07 00:13:50;;;;;;;8.83;5.55;;;;;;;10.11;80.86;94722.56;1699072;83;21014;-52
2021/06/07 00:16:18;;;;;;;11.68;5.15;;;;;;;10.10;80.94;94716.31;1703687;84;21518;-52
2021/06/07 00:18:46;;;;;;;10.58;5.67;;;;;;;10.07;80.76;94713.08;1693171;83;21536;-51
2021/06/07 00:21:19;;;;;;;5.45;4.80;;;;;;;10.05;80.61;94713.34;1697275;83;20963;-51
2021/06/07 00:23:46;;;;;;;7.37;5.47;;;;;;;10.03;80.62;94715.19;1693986;83;21014;-51
2021/06/07 00:26:14;;;;;;;5.83;5.22;;;;;;;10.02;80.69;94714.24;1691078;83;20958;-52
2021/06/07 00:28:41;;;;;;;7.10;5.60;;;;;;;9.98;80.72;94710.82;1697422;83;21148;-51
2021/06/07 00:31:09;;;;;;;6.42;4.97;;;;;;;9.97;80.85;94718.91;1691450;83;21069;-52
2021/06/07 00:33:37;;;;;;;4.70;4.20;;;;;;;9.98;80.75;94715.70;1694074;83;21060;-52
2021/06/07 00:36:05;;;;;;;9.75;5.40;;;;;;;9.99;80.63;94710.98;1702239;83;21370;-50
2021/06/07 00:38:33;;;;;;;6.42;5.28;;;;;;;9.95;80.67;94713.09;1691654;83;20940;-50
2021/06/07 00:41:04;;;;;;;6.15;5.10;;;;;;;9.95;80.76;94710.34;1703408;84;21154;-51
2021/06/07 00:43:30;;;;;;;8.93;5.40;;;;;;;9.96;80.58;94700.27;1701356;83;20955;-51
2021/06/07 00:45:57;;;;;;;5.42;4.92;;;;;;;9.95;80.37;94707.59;1703612;84;21105;-51
2021/06/07 00:48:23;;;;;;;7.03;5.00;;;;;;;9.91;80.34;94705.55;1701415;83;21151;-51
2021/06/07 00:50:58;;;;;;;8.33;5.28;;;;;;;9.87;80.49;94702.16;1693287;83;21475;-51
2021/06/07 00:53:25;;;;;;;8.63;5.42;;;;;;;9.85;80.53;94705.95;1693413;83;21776;-51
2021/06/07 00:55:57;;;;;;;5.87;5.35;;;;;;;9.83;80.28;94711.87;1699565;83;21467;-52
2021/06/07 00:58:31;;;;;;;8.30;5.25;;;;;;;9.77;80.31;94705.42;1704670;83;21453;-51
2021/06/07 01:01:00;;;;;;;9.30;5.85;;;;;;;9.75;80.53;94713.34;1699001;83;21082;-52
2021/06/07 01:03:29;;;;;;;5.20;4.67;;;;;;;9.75;80.32;94705.09;1701105;83;21009;-50
2021/06/07 01:05:57;;;;;;;5.08;4.58;;;;;;;9.72;80.32;94709.32;1683679;84;21286;-51
2021/06/07 01:08:23;;;;;;;5.35;4.80;;;;;;;9.70;80.31;94707.03;1701719;83;21399;-52
2021/06/07 01:10:52;;;;;;;7.70;4.95;;;;;;;9.64;80.26;94706.66;1707439;83;21030;-53
2021/06/07 01:13:19;;;;;;;5.85;5.33;;;;;;;9.58;80.86;94711.17;1702888;83;21014;-53
2021/06/07 01:15:50;;;;;;;8.80;5.33;;;;;;;9.53;81.09;94706.22;1701452;83;20964;-52
2021/06/07 01:18:20;;;;;;;6.17;5.00;;;;;;;9.47;81.30;94714.23;1692273;83;21203;-52
2021/06/07 01:20:48;;;;;;;7.30;5.80;;;;;;;9.43;81.23;94707.34;1702434;83;20971;-52
2021/06/07 01:23:15;;;;;;;10.10;5.55;;;;;;;9.40;81.40;94711.72;1700440;83;21011;-52
2021/06/07 01:25:43;;;;;;;10.25;5.42;;;;;;;9.35;81.44;94711.50;1696906;83;21485;-52
2021/06/07 01:28:14;;;;;;;7.05;5.55;;;;;;;9.32;81.51;94709.05;1693427;83;21637;-52
2021/06/07 01:30:43;;;;;;;9.30;4.80;;;;;;;9.32;81.43;94706.89;1695420;83;21161;-53
2021/06/07 01:33:12;;;;;;;9.68;5.25;;;;;;;9.34;81.71;94708.00;1699158;83;20999;-51
2021/06/07 01:35:39;;;;;;;7.03;5.20;;;;;;;9.39;81.63;94709.41;1703288;83;21000;-52
2021/06/07 01:38:06;;;;;;;5.65;5.15;;;;;;;9.41;81.54;94711.13;1697908;83;20962;-52
2021/06/07 01:40:37;;;;;;;5.95;5.45;;;;;;;9.43;81.47;94710.08;1695540;83;21618;-51
2021/06/07 01:43:04;;;;;;;6.85;5.10;;;;;;;9.44;81.43;94712.37;1660130;84;21803;-52
2021/06/07 01:45:33;;;;;;;8.90;5.55;;;;;;;9.44;81.37;94713.74;1691023;83;20962;-52
2021/06/07 01:48:03;;;;;;;8.30;5.17;;;;;;;9.45;81.43;94704.92;1685475;83;21065;-51
2021/06/07 01:50:29;;;;;;;7.55;4.42;;;;;;;9.42;81.24;94709.92;1700278;83;20987;-50
2021/06/07 01:52:58;;;;;;;5.45;4.67;;;;;;;9.37;81.24;94702.22;1700162;83;21680;-51
2021/06/07 01:55:31;;;;;;;9.38;4.83;;;;;;;9.38;81.25;94703.75;1690109;83;21182;-51
2021/06/07 01:57:57;;;;;;;4.92;4.42;;;;;;;9.38;81.16;94704.53;1698472;83;21085;-52
2021/06/07 02:00:31;;;;;;;5.28;4.70;;;;;;;9.40;80.92;94706.84;1700068;83;20969;-52
2021/06/07 02:02:57;;;;;;;7.80;4.62;;;;;;;9.39;80.83;94704.70;1692347;83;21053;-51
2021/06/07 02:05:28;;;;;;;18.90;7.80;;;;;;;9.43;81.07;94708.09;1704630;83;21011;-51
2021/06/07 02:07:57;;;;;;;4.90;4.50;;;;;;;9.45;81.24;94713.91;1694167;83;21098;-52
2021/06/07 02:10:28;;;;;;;8.03;5.00;;;;;;;9.44;81.37;94713.74;1695852;83;21018;-51
2021/06/07 02:12:55;;;;;;;7.55;5.40;;;;;;;9.42;81.52;94709.92;1691832;82;21005;-52
2021/06/07 02:15:22;;;;;;;4.90;4.47;;;;;;;9.44;81.76;94706.88;1705971;83;21010;-51
2021/06/07 02:17:49;;;;;;;5.25;4.40;;;;;;;9.50;81.70;94711.22;1708155;83;21031;-51
2021/06/07 02:20:21;;;;;;;6.03;4.20;;;;;;;9.59;81.57;94714.09;1696114;83;21018;-51
2021/06/07 02:22:48;;;;;;;9.08;5.62;;;;;;;9.67;81.25;94710.67;1702200;83;21076;-51
2021/06/07 02:25:18;;;;;;;5.28;4.87;;;;;;;9.72;80.93;94699.70;1694011;83;21124;-52
2021/06/07 02:27:45;;;;;;;6.15;4.80;;;;;;;9.75;80.46;94702.34;1688755;83;21475;-52
2021/06/07 02:30:19;;;;;;;5.40;4.90;;;;;;;9.73;80.29;94709.48;1690473;83;21421;-51
2021/06/07 02:32:46;;;;;;;4.75;4.35;;;;;;;9.72;80.11;94704.61;1704145;83;21313;-52
2021/06/07 02:35:15;;;;;;;11.78;4.70;;;;;;;9.71;79.93;94710.53;1699182;83;20970;-52
2021/06/07 02:37:43;;;;;;;5.33;4.75;;;;;;;9.72;79.86;94707.95;1697938;83;20967;-52
2021/06/07 02:40:12;;;;;;;8.95;4.95;;;;;;;9.63;79.69;94702.38;1701222;83;21058;-52
2021/06/07 02:42:40;;;;;;;5.15;4.75;;;;;;;9.55;79.95;94709.28;1695376;83;21025;-53
2021/06/07 02:45:09;;;;;;;5.15;4.75;;;;;;;9.50;80.16;94710.63;1694877;83;21177;-52
2021/06/07 02:47:37;;;;;;;7.92;4.58;;;;;;;9.52;80.40;94699.97;1694551;83;20967;-52
2021/06/07 02:50:06;;;;;;;5.78;5.00;;;;;;;9.56;80.22;94703.37;1699554;83;21013;-58
2021/06/07 02:52:33;;;;;;;5.90;5.35;;;;;;;9.56;80.30;94717.69;1702553;83;21085;-57
2021/06/07 02:55:00;;;;;;;5.90;5.40;;;;;;;9.52;80.46;94712.92;1704727;83;21029;-57
2021/06/07 02:57:27;;;;;;;13.85;5.10;;;;;;;9.49;80.80;94713.80;1697712;83;21159;-57
2021/06/07 02:59:53;;;;;;;5.28;4.78;;;;;;;9.48;80.72;94717.77;1703706;83;21034;-54
2021/06/07 03:02:20;;;;;;;8.63;4.55;;;;;;;9.47;80.71;94712.11;1705098;83;21009;-53
2021/06/07 03:04:47;;;;;;;9.00;5.00;;;;;;;9.52;80.66;94718.41;1696898;83;21021;-52
2021/06/07 03:07:13;;;;;;;5.67;4.75;;;;;;;9.53;80.62;94718.58;1693757;83;21007;-53
2021/06/07 03:09:41;;;;;;;5.50;4.80;;;;;;;9.55;80.54;94720.27;1702990;83;21242;-53
2021/06/07 03:12:10;;;;;;;5.00;4.50;;;;;;;9.51;80.36;94718.25;1702270;83;21486;-54
2021/06/07 03:14:41;;;;;;;6.55;5.30;;;;;;;9.46;80.37;94722.31;1699379;83;21093;-51
2021/06/07 03:17:05;;;;;;;7.35;5.05;;;;;;;9.42;80.50;94724.41;1700195;83;20971;-50
2021/06/07 03:19:32;;;;;;;11.75;5.75;;;;;;;9.45;80.73;94721.39;1695507;83;21007;-50
2021/06/07 03:21:58;;;;;;;10.08;5.25;;;;;;;9.51;80.89;94727.27;1697173;83;21102;-50
2021/06/07 03:24:25;;;;;;;9.33;5.67;;;;;;;9.51;81.00;94731.98;1702496;83;20955;-51
2021/06/07 03:26:51;;;;;;;6.03;5.10;;;;;;;9.51;80.96;94736.88;1705362;83;21019;-52
2021/06/07 03:29:18;;;;;;;6.15;4.95;;;;;;;9.54;81.02;94729.13;1690566;83;21017;-54
2021/06/07 03:31:45;;;;;;;10.82;5.25;;;;;;;9.62;81.01;94732.42;1691680;83;21018;-53
2021/06/07 03:34:12;;;;;;;10.63;5.58;;;;;;;9.72;80.97;94736.80;1696081;83;21195;-53
2021/06/07 03:36:38;;;;;;;9.23;6.12;;;;;;;9.81;81.06;94737.66;1688608;83;21053;-52
2021/06/07 03:39:05;;;;;;;14.68;5.65;;;;;;;9.92;80.97;94738.09;1690678;83;21005;-52
2021/06/07 03:41:32;;;;;;;10.93;6.53;;;;;;;10.00;81.06;94738.62;1685608;83;21026;-53
2021/06/07 03:43:59;;;;;;;15.35;6.20;;;;;;;10.06;80.95;94733.53;1701217;83;21006;-52
2021/06/07 03:46:26;;;;;;;7.22;5.22;;;;;;;10.11;80.83;94733.55;1700432;83;21104;-53
2021/06/07 03:48:53;;;;;;;6.53;5.92;;;;;;;10.20;80.97;94739.91;1699504;83;20960;-53
2021/06/07 03:51:20;;;;;;;8.53;5.67;;;;;;;10.29;80.73;94741.37;1706223;83;21482;-55
2021/06/07 03:53:46;;;;;;;9.48;7.03;;;;;;;10.33;80.54;94742.02;1698350;83;21071;-53
2021/06/07 03:56:13;;;;;;;7.28;6.22;;;;;;;10.38;80.51;94740.06;1693111;83;21053;-52
2021/06/07 03:58:40;;;;;;;10.72;6.08;;;;;;;10.45;80.51;94739.05;1695047;83;22475;-53
2021/06/07 04:01:06;;;;;;;14.05;6.20;;;;;;;10.54;80.50;94737.77;1700282;83;21104;-54
2021/06/07 04:03:34;;;;;;;8.63;7.17;;;;;;;10.66;80.55;94741.83;1700800;83;20995;-54
2021/06/07 04:06:01;;;;;;;10.95;7.10;;;;;;;10.82;80.65;94743.02;1703444;83;21039;-54
2021/06/07 04:08:28;;;;;;;10.15;7.00;;;;;;;10.94;80.19;94742.95;1704509;83;21077;-54
2021/06/07 04:10:55;;;;;;;9.33;7.53;;;;;;;11.00;79.91;94737.64;1706774;83;21153;-53
2021/06/07 04:13:22;;;;;;;8.20;6.60;;;;;;;10.99;79.79;94743.73;1703379;84;21075;-53
2021/06/07 04:15:48;;;;;;;11.05;7.15;;;;;;;11.03;79.62;94743.02;1700487;83;21494;-53
2021/06/07 04:18:15;;;;;;;10.63;6.87;;;;;;;11.09;79.66;94750.84;1700967;83;21525;-54
2021/06/07 04:20:42;;;;;;;11.60;7.53;;;;;;;11.15;79.66;94749.03;1701425;83;21423;-54
2021/06/07 04:23:09;;;;;;;15.03;8.08;;;;;;;11.19;79.52;94749.66;1699909;83;21226;-54
2021/06/07 04:25:35;;;;;;;11.20;8.05;;;;;;;11.25;79.32;94742.37;1695332;83;20958;-53
2021/06/07 04:28:03;;;;;;;13.10;7.35;;;;;;;11.29;79.12;94748.51;1710596;83;21006;-54
2021/06/07 04:30:31;;;;;;;9.25;7.25;;;;;;;11.36;78.86;94747.48;1708906;83;21002;-54
2021/06/07 04:32:58;;;;;;;10.95;7.37;;;;;;;11.42;78.60;94751.95;1694875;83;21061;-53
2021/06/07 04:35:25;;;;;;;10.95;7.12;;;;;;;11.52;78.50;94748.63;1693846;82;21866;-54
2021/06/07 04:37:53;;;;;;;13.68;11.73;;;;;;;11.55;78.07;94742.95;1708280;83;21396;-52
2021/06/07 04:40:34;;;;;;;13.88;10.50;;;;;;;11.59;78.05;94747.77;1693378;83;21054;-53
2021/06/07 04:43:03;;;;;;;17.67;9.85;;;;;;;11.65;78.11;94743.79;1687548;83;21566;-55
2021/06/07 04:45:29;;;;;;;11.48;7.30;;;;;;;11.72;77.86;94755.30;1692356;83;21010;-53
2021/06/07 04:47:56;;;;;;;9.00;7.55;;;;;;;11.83;77.17;94749.37;1692874;83;21159;-53
2021/06/07 04:50:24;;;;;;;9.88;7.60;;;;;;;11.90;76.71;94755.36;1704978;83;20974;-54
2021/06/07 04:53:01;;;;;;;14.30;7.30;;;;;;;11.96;76.44;94756.32;1696621;83;22117;-54
2021/06/07 04:55:36;;;;;;;9.70;7.28;;;;;;;12.04;76.02;94754.80;1700966;84;21027;-53
2021/06/07 04:58:15;;;;;;;8.68;7.08;;;;;;;12.10;75.68;94759.86;1695429;83;21090;-54
2021/06/07 05:00:45;;;;;;;7.40;6.62;;;;;;;12.14;75.37;94754.98;1698247;83;21166;-54
2021/06/07 05:03:12;;;;;;;13.68;7.58;;;;;;;12.19;75.15;94750.84;1697296;83;21097;-54
2021/06/07 05:05:39;;;;;;;12.98;6.72;;;;;;;12.26;75.10;94751.94;1698280;83;21003;-54
2021/06/07 05:08:06;;;;;;;15.05;7.85;;;;;;;12.31;75.06;94754.87;1694110;83;20962;-54
2021/06/07 05:10:33;;;;;;;14.83;7.28;;;;;;;12.37;75.06;94754.41;1700682;83;21050;-54
2021/06/07 05:13:01;;;;;;;10.90;7.03;;;;;;;12.50;74.79;94757.80;1693549;83;21203;-56
2021/06/07 05:15:28;;;;;;;11.95;6.97;;;;;;;12.60;74.45;94754.59;1695602;82;21124;-55
2021/06/07 05:17:55;;;;;;;11.68;6.55;;;;;;;12.68;73.98;94750.91;1687250;83;21526;-54
2021/06/07 05:20:27;;;;;;;8.63;6.80;;;;;;;12.79;73.58;94752.58;1687189;83;21097;-55
2021/06/07 05:22:54;;;;;;;12.27;6.77;;;;;;;12.94;73.11;94754.27;1692947;82;21044;-55
2021/06/07 05:25:22;;;;;;;13.32;7.30;;;;;;;13.17;72.99;94756.41;1653520;84;21133;-55
2021/06/07 05:27:50;;;;;;;18.32;7.40;;;;;;;13.38;73.08;94751.30;1694507;83;21531;-54
2021/06/07 05:30:19;;;;;;;14.30;9.25;;;;;;;13.54;72.95;94757.08;1691091;83;21166;-55
2021/06/07 05:32:45;;;;;;;10.35;8.30;;;;;;;13.77;72.84;94756.38;1699885;83;20979;-54
2021/06/07 05:35:14;;;;;;;14.60;8.13;;;;;;;14.01;71.99;94746.14;1687842;83;21503;-54
2021/06/07 05:37:41;;;;;;;10.40;7.10;;;;;;;14.19;71.41;94747.45;1693793;83;21812;-53
2021/06/07 05:40:09;;;;;;;10.30;6.10;;;;;;;14.37;70.91;94747.34;1701130;83;21137;-54
2021/06/07 05:42:36;;;;;;;14.35;6.85;;;;;;;14.53;70.89;94741.55;1688484;83;21198;-54
2021/06/07 05:45:06;;;;;;;11.43;5.42;;;;;;;14.71;70.20;94741.41;1682265;83;21108;-55
2021/06/07 05:47:32;;;;;;;34.88;21.73;;;;;;;14.86;69.59;94732.52;1701874;83;21661;-55
2021/06/07 05:50:03;;;;;;;10.20;7.92;;;;;;;15.06;69.04;94737.41;1689213;83;21152;-54
2021/06/07 05:52:30;;;;;;;13.05;6.20;;;;;;;15.22;68.86;94728.00;1681382;83;21018;-55
2021/06/07 05:54:56;;;;;;;9.30;6.12;;;;;;;15.38;68.44;94727.56;1701371;82;21529;-54
2021/06/07 05:57:23;;;;;;;10.32;5.50;;;;;;;15.54;67.95;94727.08;1670004;83;21115;-54
2021/06/07 05:59:49;;;;;;;18.80;6.50;;;;;;;15.64;67.39;94722.97;1694245;82;21002;-54
2021/06/07 06:02:18;;;;;;;19.02;5.83;;;;;;;15.68;66.99;94726.91;1688465;82;21106;-54
2021/06/07 06:04:45;;;;;;;5.85;5.00;;;;;;;15.69;67.11;94726.45;1702917;83;21059;-54
2021/06/07 06:07:12;;;;;;;7.40;4.80;;;;;;;15.75;66.94;94719.61;1703800;82;21073;-54
2021/06/07 06:09:39;;;;;;;9.93;5.15;;;;;;;15.81;66.91;94726.00;1690791;82;21441;-56
2021/06/07 06:12:08;;;;;;;10.55;6.33;;;;;;;15.89;67.32;94716.80;1694126;83;21077;-55
2021/06/07 06:14:34;;;;;;;8.48;5.08;;;;;;;16.00;67.08;94718.36;1699030;83;22165;-54
2021/06/07 06:17:05;;;;;;;10.82;5.20;;;;;;;16.11;66.70;94713.59;1684494;83;21061;-56
2021/06/07 06:19:29;;;;;;;7.62;5.30;;;;;;;16.23;66.29;94722.20;1699392;82;21050;-54
2021/06/07 06:21:56;;;;;;;10.72;5.58;;;;;;;16.31;66.13;94722.70;1676910;83;21193;-55
2021/06/07 06:24:23;;;;;;;6.33;4.83;;;;;;;16.44;66.14;94723.94;1683343;83;21177;-55
2021/06/07 06:26:50;;;;;;;6.17;4.50;;;;;;;16.58;66.27;94723.09;1686069;83;21152;-55
2021/06/07 06:29:16;;;;;;;11.18;4.47;;;;;;;16.76;65.08;94708.16;1692779;83;21054;-56
2021/06/07 06:31:43;;;;;;;16.35;4.75;;;;;;;16.94;64.63;94715.56;1702204;83;21526;-55
2021/06/07 06:34:10;;;;;;;6.15;4.12;;;;;;;17.09;64.90;94714.09;1692039;83;21029;-56
2021/06/07 06:36:36;;;;;;;7.70;4.37;;;;;;;17.20;64.30;94716.36;1697942;83;21074;-60
2021/06/07 06:39:05;;;;;;;7.97;4.35;;;;;;;17.25;64.05;94716.29;1710543;82;21154;-53
2021/06/07 06:41:33;;;;;;;6.92;4.33;;;;;;;17.31;63.86;94708.76;1685839;83;21017;-50
2021/06/07 06:44:01;;;;;;;6.08;4.10;;;;;;;17.43;63.56;94717.38;1686390;83;21121;-53
2021/06/07 06:46:28;;;;;;;5.85;4.78;;;;;;;17.52;62.87;94714.41;1687034;82;21497;-55
2021/06/07 06:48:54;;;;;;;8.60;4.58;;;;;;;17.61;62.85;94707.30;1693955;84;21182;-56
2021/06/07 06:51:21;;;;;;;6.58;5.35;;;;;;;17.75;62.09;94703.59;1704573;82;21954;-55
2021/06/07 06:53:48;;;;;;;8.08;4.83;;;;;;;17.87;61.70;94703.21;1691936;83;21085;-54
2021/06/07 06:56:15;;;;;;;8.13;4.00;;;;;;;18.08;61.90;94702.45;1699862;83;20995;-55
2021/06/07 06:58:42;;;;;;;8.93;3.87;;;;;;;18.28;61.21;94697.55;1709639;82;21075;-52
2021/06/07 07:01:09;;;;;;;10.50;4.35;;;;;;;18.46;61.14;94695.76;1694632;82;21314;-58
2021/06/07 07:03:38;;;;;;;7.58;5.45;;;;;;;18.53;59.70;94689.08;1700035;82;21403;-55
2021/06/07 07:06:04;;;;;;;10.48;5.37;;;;;;;18.64;58.42;94696.08;1705109;83;21077;-55
2021/06/07 07:08:32;;;;;;;8.93;4.00;;;;;;;18.74;58.16;94707.16;1665119;83;21034;-56
2021/06/07 07:11:01;;;;;;;8.23;3.65;;;;;;;18.86;57.87;94685.66;1653078;84;21015;-56
2021/06/07 07:13:30;;;;;;;8.25;3.85;;;;;;;18.95;57.42;94697.35;1683029;82;20981;-56
2021/06/07 07:16:00;;;;;;;14.83;6.25;;;;;;;19.04;57.93;94694.32;1683019;83;21134;-59
2021/06/07 07:18:31;;;;;;;9.38;5.00;;;;;;;19.16;57.71;94694.52;1680580;83;21092;-58
2021/06/07 07:21:02;;;;;;;8.65;4.40;;;;;;;19.31;57.16;94689.48;1659959;83;21090;-58
2021/06/07 07:23:29;;;;;;;8.78;4.37;;;;;;;19.47;57.20;94695.72;1675030;83;21120;-58
2021/06/07 07:25:56;;;;;;;6.30;3.92;;;;;;;19.59;56.36;94694.45;1680650;83;21027;-55
2021/06/07 07:28:22;;;;;;;7.25;4.37;;;;;;;19.75;55.90;94701.33;1682921;83;21165;-58
2021/06/07 07:30:49;;;;;;;9.55;4.58;;;;;;;19.98;55.63;94702.84;1694217;83;21180;-56
2021/06/07 07:33:17;;;;;;;10.28;5.40;;;;;;;20.22;54.83;94696.87;1700100;83;21023;-56
2021/06/07 07:35:44;;;;;;;7.03;4.17;;;;;;;20.38;54.19;94694.03;1694595;83;21613;-57
2021/06/07 07:38:11;;;;;;;9.28;5.37;;;;;;;20.45;54.16;94689.96;1691555;83;21046;-59
2021/06/07 07:40:38;;;;;;;6.92;3.98;;;;;;;20.56;55.06;94692.73;1708495;82;21111;-57
2021/06/07 07:43:05;;;;;;;8.40;2.70;;;;;;;20.75;54.09;94687.44;1686556;82;21136;-59
2021/06/07 07:45:32;;;;;;;9.40;3.25;;;;;;;20.91;49.88;94694.29;1691666;83;21114;-57
2021/06/07 07:48:01;;;;;;;3.98;2.85;;;;;;;21.05;49.76;94702.98;1682752;83;21074;-54
2021/06/07 07:50:28;;;;;;;5.95;2.80;;;;;;;21.18;49.17;94698.36;1685411;83;21142;-55
2021/06/07 07:52:55;;;;;;;5.10;3.27;;;;;;;21.30;48.27;94704.65;1683661;82;21160;-57
2021/06/07 07:55:25;;;;;;;8.38;3.12;;;;;;;21.37;49.54;94704.86;1703543;82;20986;-58
2021/06/07 07:57:53;;;;;;;5.45;2.87;;;;;;;21.55;47.19;94703.46;1673810;83;21004;-59
2021/06/07 08:00:26;;;;;;;4.65;2.20;;;;;;;21.71;46.25;94693.59;1679257;83;21139;-57
2021/06/07 08:02:53;;;;;;;3.67;2.55;;;;;;;21.85;44.56;94688.89;1685502;83;21500;-56
2021/06/07 08:05:20;;;;;;;7.90;3.10;;;;;;;21.99;46.37;94704.58;1701056;83;21140;-57
2021/06/07 08:07:46;;;;;;;5.58;3.10;;;;;;;22.09;46.18;94703.06;1688018;83;21585;-56
2021/06/07 08:10:16;;;;;;;7.17;4.22;;;;;;;22.17;46.29;94708.23;1698680;83;21141;-56
2021/06/07 08:12:45;;;;;;;4.10;2.58;;;;;;;22.20;46.02;94710.61;1697656;82;21115;-55
2021/06/07 08:15:14;;;;;;;5.15;2.85;;;;;;;22.19;43.42;94701.47;1687651;82;21039;-55
2021/06/07 08:17:41;;;;;;;4.80;2.70;;;;;;;22.12;43.64;94709.02;1698751;82;21290;-56
2021/06/07 08:20:11;;;;;;;4.85;2.22;;;;;;;22.07;44.48;94707.03;1702592;83;21062;-58
2021/06/07 08:22:38;;;;;;;3.20;2.85;;;;;;;22.09;44.02;94697.47;1708656;83;21025;-58
2021/06/07 08:25:07;;;;;;;4.35;2.42;;;;;;;22.24;46.11;94699.24;1697352;83;21054;-55
2021/06/07 08:27:34;;;;;;;6.35;2.70;;;;;;;22.54;44.95;94690.19;1695829;82;21591;-55
2021/06/07 08:30:01;;;;;;;4.35;2.40;;;;;;;22.84;43.23;94690.10;1663336;83;21087;-55
2021/06/07 08:32:27;;;;;;;14.75;3.45;;;;;;;23.12;41.26;94687.73;1701182;82;21805;-54
2021/06/07 08:34:54;;;;;;;4.45;2.27;;;;;;;23.33;42.29;94690.89;1702161;82;21053;-57
2021/06/07 08:37:21;;;;;;;3.08;2.40;;;;;;;23.53;41.21;94695.97;1692680;82;21827;-53
2021/06/07 08:39:48;;;;;;;3.85;2.42;;;;;;;23.58;40.17;94686.70;1671410;83;21129;-54
2021/06/07 08:42:14;;;;;;;4.80;2.12;;;;;;;23.59;40.11;94693.83;1682466;82;21851;-55
2021/06/07 08:44:41;;;;;;;2.62;2.30;;;;;;;23.50;40.10;94697.04;1690947;82;21125;-58
2021/06/07 08:47:08;;;;;;;2.55;2.35;;;;;;;23.41;39.86;94701.63;1698064;82;21093;-55
2021/06/07 08:49:35;;;;;;;4.37;2.00;;;;;;;23.32;39.06;94700.61;1695791;83;20999;-56
2021/06/07 08:52:03;;;;;;;5.33;2.30;;;;;;;23.22;39.92;94700.11;1675195;82;21047;-57
2021/06/07 08:54:32;;;;;;;5.80;2.47;;;;;;;23.26;40.79;94694.32;1687123;83;21166;-56
2021/06/07 08:56:59;;;;;;;6.05;2.75;;;;;;;23.36;41.79;94700.31;1688167;83;21610;-54
2021/06/07 08:59:26;;;;;;;3.35;2.58;;;;;;;23.50;39.70;94697.67;1708112;82;21166;-53
2021/06/07 09:01:55;;;;;;;23.80;4.95;;;;;;;23.54;39.29;94698.89;1699908;82;21553;-54
2021/06/07 09:04:21;;;;;;;6.03;3.17;;;;;;;23.47;40.07;94704.36;1682537;83;21156;-55
2021/06/07 09:06:50;;;;;;;2.60;2.40;;;;;;;23.42;41.96;94704.54;1690053;83;21050;-55
2021/06/07 09:09:22;;;;;;;8.93;2.92;;;;;;;23.40;39.50;94711.34;1696994;83;21045;-55
2021/06/07 09:11:58;;;;;;;6.60;2.90;;;;;;;23.37;40.25;94710.26;1693661;82;21546;-55
2021/06/07 09:14:30;;;;;;;10.10;3.67;;;;;;;23.23;41.72;94705.18;1703756;82;21149;-54
2021/06/07 09:16:57;;;;;;;7.53;3.05;;;;;;;23.12;42.61;94703.94;1687774;82;21398;-57
2021/06/07 09:19:31;;;;;;;9.65;3.72;;;;;;;23.03;43.09;94697.25;1699166;83;22079;-56
2021/06/07 09:22:29;;;;;;;5.67;3.47;;;;;;;22.92;43.42;94698.03;1698526;83;21035;-53
2021/06/07 09:25:14;;;;;;;13.72;3.55;;;;;;;22.83;44.19;94697.75;1700310;82;21111;-54
2021/06/07 09:28:11;;;;;;;11.43;3.40;;;;;;;22.82;44.50;94695.48;1676613;83;21048;-56
2021/06/07 09:30:45;;;;;;;8.78;3.12;;;;;;;22.84;44.42;94698.52;1695651;82;20960;-54
2021/06/07 09:33:34;;;;;;;6.35;3.00;;;;;;;22.77;44.79;94692.85;1664688;83;21851;-57
2021/06/07 09:36:17;;;;;;;4.45;2.70;;;;;;;22.78;45.17;94691.56;1688990;83;21549;-54
2021/06/07 09:39:07;;;;;;;7.60;3.72;;;;;;;22.80;44.71;94687.59;1688804;82;21537;-54
2021/06/07 09:41:56;;;;;;;7.17;3.08;;;;;;;22.85;44.55;94686.01;1686525;82;21551;-54
2021/06/07 09:44:37;;;;;;;9.63;3.67;;;;;;;22.83;44.87;94689.33;1697158;83;21166;-54
2021/06/07 09:47:25;;;;;;;14.45;4.83;;;;;;;22.81;45.16;94690.50;1703408;82;21727;-54
2021/06/07 09:50:06;;;;;;;12.18;4.75;;;;;;;22.83;44.92;94690.73;1662684;84;21054;-58
2021/06/07 09:52:44;;;;;;;15.78;4.28;;;;;;;22.81;45.71;94696.12;1690633;83;21024;-55
2021/06/07 09:55:23;;;;;;;14.20;3.98;;;;;;;22.77;45.31;94686.47;1684953;83;21034;-53
2021/06/07 09:58:01;;;;;;;10.20;4.25;;;;;;;22.63;44.88;94687.02;1687819;82;21047;-56
2021/06/07 10:00:43;;;;;;;7.03;3.62;;;;;;;22.53;45.91;94687.27;1691093;83;21104;-56
2021/06/07 10:03:18;;;;;;;8.13;3.70;;;;;;;22.35;44.82;94694.94;1707769;82;21604;-51
2021/06/07 10:05:47;;;;;;;10.85;6.45;;;;;;;22.05;45.43;94691.39;1689688;82;21077;-52
2021/06/07 10:08:14;;;;;;;5.90;5.28;;;;;;;21.81;44.27;94690.58;1701531;82;21510;-56
2021/06/07 10:10:41;;;;;;;6.33;3.45;;;;;;;21.65;44.83;94693.51;1699124;82;21092;-59
2021/06/07 10:13:10;;;;;;;3.62;2.75;;;;;;;21.58;46.02;94691.22;1697659;81;21931;-54
2021/06/07 10:15:46;;;;;;;7.75;5.92;;;;;;;21.51;45.67;94683.39;1683800;83;21240;-59
2021/06/07 10:18:19;;;;;;;10.50;5.28;;;;;;;21.50;47.15;94683.27;1694685;83;21063;-56
2021/06/07 10:20:49;;;;;;;15.38;10.93;;;;;;;21.51;48.24;94677.79;1687559;83;21063;-55
2021/06/07 10:23:30;;;;;;;11.68;5.87;;;;;;;21.56;48.57;94669.98;1701147;83;21026;-54
2021/06/07 10:25:59;;;;;;;10.15;5.53;;;;;;;21.62;48.59;94672.89;1699092;83;21116;-52
2021/06/07 10:28:34;;;;;;;15.28;4.08;;;;;;;21.69;48.43;94669.52;1692834;82;21038;-53
2021/06/07 10:31:17;;;;;;;21.02;4.20;;;;;;;21.77;48.98;94668.32;1707125;83;21079;-56
2021/06/07 10:34:02;;;;;;;7.92;2.72;;;;;;;21.86;48.94;94664.55;1684020;83;21054;-55
2021/06/07 10:36:36;;;;;;;5.42;2.95;;;;;;;21.85;48.59;94666.48;1706126;83;21527;-54
2021/06/07 10:39:22;;;;;;;9.43;3.62;;;;;;;21.85;49.38;94681.23;1701450;82;21353;-55
2021/06/07 10:42:16;;;;;;;8.30;2.67;;;;;;;21.96;49.45;94673.37;1682949;82;21081;-52
2021/06/07 10:45:02;;;;;;;7.92;3.10;;;;;;;21.93;47.15;94673.03;1696749;82;21486;-53
2021/06/07 10:47:42;;;;;;;7.03;3.22;;;;;;;21.79;47.92;94685.36;1702825;83;21078;-54
2021/06/07 10:50:11;;;;;;;7.95;3.37;;;;;;;21.75;49.41;94691.89;1677299;83;21059;-52
2021/06/07 10:52:50;;;;;;;9.10;3.80;;;;;;;21.65;53.44;94711.71;1697480;83;21549;-56
2021/06/07 10:55:13;;;;;;;6.65;3.92;;;;;;;21.37;54.98;94697.09;1702398;83;21024;-53
2021/06/07 10:57:48;;;;;;;7.42;5.08;;;;;;;20.92;57.19;94702.80;1699446;83;21077;-53
2021/06/07 11:00:23;;;;;;;6.58;4.30;;;;;;;20.56;59.05;94706.71;1683976;83;21037;-54
2021/06/07 11:02:54;;;;;;;10.23;5.80;;;;;;;20.34;61.57;94711.70;1680075;83;21609;-57
2021/06/07 11:05:28;;;;;;;6.12;4.35;;;;;;;20.12;61.83;94713.77;1668603;83;21132;-57
2021/06/07 11:08:11;;;;;;;5.78;4.47;;;;;;;19.91;61.88;94728.49;1679602;82;21099;-57
2021/06/07 11:10:43;;;;;;;8.03;6.00;;;;;;;19.62;62.25;94726.95;1677203;83;21064;-56
2021/06/07 11:13:18;;;;;;;16.12;11.65;;;;;;;19.28;61.55;94735.75;1660532;84;22208;-58
2021/06/07 11:16:01;;;;;;;16.87;10.58;;;;;;;18.96;61.75;94745.50;1627850;84;21139;-56
2021/06/07 11:18:35;;;;;;;13.68;10.68;;;;;;;18.71;62.55;94758.34;1653086;85;21213;-58
2021/06/07 11:21:14;;;;;;;12.37;10.48;;;;;;;18.48;63.28;94763.63;1646876;86;21129;-59
2021/06/07 11:23:42;;;;;;;7.50;5.90;;;;;;;18.33;63.98;94755.31;1687139;83;21092;-61
2021/06/07 11:26:15;;;;;;;6.37;5.03;;;;;;;18.23;64.95;94758.12;1667872;84;21164;-59
2021/06/07 11:28:52;;;;;;;6.25;4.33;;;;;;;18.07;65.97;94755.22;1683889;83;21016;-58
2021/06/07 11:31:33;;;;;;;6.45;4.85;;;;;;;17.85;67.17;94768.97;1679743;83;21781;-59
2021/06/07 11:34:11;;;;;;;8.33;6.70;;;;;;;17.69;68.60;94765.41;1685783;82;21717;-60
2021/06/07 11:36:59;;;;;;;14.20;11.08;;;;;;;17.55;69.88;94765.67;1696890;82;21020;-58
2021/06/07 11:39:24;;;;;;;8.08;5.78;;;;;;;17.53;70.84;94771.58;1691877;83;21039;-58
2021/06/07 11:42:03;;;;;;;7.65;4.65;;;;;;;17.59;71.02;94768.98;1703985;82;21069;-56
2021/06/07 11:44:47;;;;;;;7.28;4.72;;;;;;;17.70;71.37;94762.77;1696147;82;21234;-57